Time;durP1;ratioP1;P1;durP2;ratioP2;P2;SDS_P1;SDS_P2;PMS_P1;PMS_P2;Temp;Humidity;BMP_temperature;BMP_pressure;BME280_temperature;BME280_humidity;BME280_pressure;Samples;Min_cycle;Max_cycle;Signal;HPM_P1;HPM_P2
2022/04/13 00:02:13;;;;;;;21.17;16.10;;;12.40;67.10;;;;;;5113060;28;20078;-55
2022/04/13 00:04:57;;;;;;;23.85;17.50;;;12.10;67.80;;;;;;5118671;27;20058;-55
2022/04/13 00:07:41;;;;;;;22.27;15.38;;;12.00;68.30;;;;;;5112134;28;20149;-53
2022/04/13 00:10:25;;;;;;;30.00;16.75;;;11.90;68.50;;;;;;5120368;27;20092;-57
2022/04/13 00:13:09;;;;;;;24.95;17.73;;;11.90;68.80;;;;;;5121272;27;20454;-56
2022/04/13 00:15:53;;;;;;;21.08;15.32;;;12.00;68.70;;;;;;5136096;27;20088;-54
2022/04/13 00:18:38;;;;;;;21.45;16.10;;;12.00;68.80;;;;;;5114429;28;20093;-52
2022/04/13 00:21:22;;;;;;;23.38;15.93;;;12.00;68.50;;;;;;5116380;28;20112;-55
2022/04/13 00:24:07;;;;;;;21.80;16.15;;;12.00;68.30;;;;;;5095976;28;20380;-55
2022/04/13 00:26:51;;;;;;;23.08;16.30;;;12.00;68.20;;;;;;5098659;28;20094;-55
2022/04/13 00:29:35;;;;;;;22.65;15.98;;;11.80;68.30;;;;;;5116357;28;20051;-55
2022/04/13 00:32:20;;;;;;;23.23;16.93;;;11.70;68.60;;;;;;5109414;28;20042;-57
2022/04/13 00:35:04;;;;;;;22.55;16.40;;;11.70;68.80;;;;;;5088407;28;20106;-53
2022/04/13 00:37:49;;;;;;;22.33;15.30;;;11.60;69.00;;;;;;5116494;28;20054;-55
2022/04/13 00:40:37;;;;;;;26.85;15.68;;;11.60;69.20;;;;;;5104877;28;20395;-51
2022/04/13 00:43:21;;;;;;;23.88;15.05;;;11.60;69.30;;;;;;5133338;27;20029;-54
2022/04/13 00:46:05;;;;;;;20.20;14.60;;;11.50;69.10;;;;;;5120366;27;20407;-55
2022/04/13 00:48:49;;;;;;;22.63;15.20;;;11.60;69.10;;;;;;5116495;28;20168;-55
2022/04/13 00:51:33;;;;;;;21.50;15.82;;;11.70;69.60;;;;;;5097125;28;20346;-55
2022/04/13 00:54:24;;;;;;;22.38;14.75;;;11.70;68.90;;;;;;5079764;28;20035;-56
2022/04/13 00:57:11;;;;;;;19.20;14.30;;;11.70;68.80;;;;;;5094113;28;20065;-53
2022/04/13 00:59:57;;;;;;;21.98;16.05;;;11.70;68.70;;;;;;5094594;28;20071;-52
2022/04/13 01:02:43;;;;;;;22.90;15.13;;;11.70;68.70;;;;;;5101559;28;20034;-53
2022/04/13 01:05:27;;;;;;;21.20;15.07;;;11.70;68.80;;;;;;5115577;28;20038;-53
2022/04/13 01:08:12;;;;;;;23.27;15.77;;;11.50;68.60;;;;;;5115562;28;20077;-56
2022/04/13 01:10:58;;;;;;;19.23;14.38;;;11.30;69.20;;;;;;5115490;28;20050;-56
2022/04/13 01:13:42;;;;;;;25.40;15.25;;;11.20;69.70;;;;;;5096441;28;20113;-56
2022/04/13 01:16:27;;;;;;;25.42;15.68;;;11.10;70.00;;;;;;5100186;28;20559;-54
2022/04/13 01:19:13;;;;;;;20.47;14.30;;;11.10;70.20;;;;;;5116249;28;20042;-55
2022/04/13 01:22:03;;;;;;;20.60;15.20;;;11.10;70.20;;;;;;5115356;28;20084;-56
2022/04/13 01:24:48;;;;;;;21.83;14.68;;;11.10;70.10;;;;;;5116192;28;20038;-55
2022/04/13 01:27:32;;;;;;;19.90;14.32;;;10.90;70.50;;;;;;5106374;28;20404;-53
2022/04/13 01:30:17;;;;;;;22.30;15.20;;;10.90;70.70;;;;;;5095232;28;20035;-51
2022/04/13 01:33:01;;;;;;;24.13;15.00;;;11.00;70.60;;;;;;5106623;28;20055;-56
2022/04/13 01:35:45;;;;;;;19.50;14.65;;;11.10;70.30;;;;;;5102129;28;20105;-55
2022/04/13 01:38:31;;;;;;;24.48;16.27;;;11.30;69.90;;;;;;5078933;28;20134;-53
2022/04/13 01:41:15;;;;;;;21.98;14.85;;;11.20;69.70;;;;;;5111333;27;20584;-55
2022/04/13 01:43:59;;;;;;;19.33;14.13;;;11.30;69.90;;;;;;5135198;27;20070;-56
2022/04/13 01:46:43;;;;;;;19.60;14.20;;;11.30;69.70;;;;;;5114021;27;20035;-50
2022/04/13 01:49:27;;;;;;;23.88;14.50;;;11.40;69.60;;;;;;5099312;28;20281;-57
2022/04/13 01:52:12;;;;;;;21.13;14.35;;;11.50;69.60;;;;;;5094794;28;20039;-53
2022/04/13 01:54:56;;;;;;;19.35;14.30;;;11.50;69.40;;;;;;5097254;28;20390;-55
2022/04/13 01:57:41;;;;;;;21.92;14.35;;;11.40;69.40;;;;;;5114212;28;20038;-55
2022/04/13 02:00:25;;;;;;;18.73;14.70;;;11.30;69.50;;;;;;5107468;28;20514;-52
2022/04/13 02:03:09;;;;;;;20.65;14.10;;;11.20;69.80;;;;;;5109876;28;20597;-57
2022/04/13 02:05:54;;;;;;;20.13;15.03;;;11.20;69.90;;;;;;5114482;28;20112;-55
2022/04/13 02:08:38;;;;;;;19.23;13.15;;;11.20;70.00;;;;;;5097654;28;20085;-53
2022/04/13 02:11:22;;;;;;;27.97;13.93;;;11.10;70.00;;;;;;5093306;28;20082;-51
2022/04/13 02:14:07;;;;;;;19.98;14.30;;;11.20;70.20;;;;;;5106996;28;20057;-54
2022/04/13 02:16:52;;;;;;;20.92;13.48;;;11.20;70.00;;;;;;5113065;28;20458;-52
2022/04/13 02:19:35;;;;;;;18.95;14.63;;;11.20;69.80;;;;;;5113456;28;20042;-56
2022/04/13 02:22:20;;;;;;;20.30;14.20;;;11.30;69.90;;;;;;5112793;28;20035;-53
2022/04/13 02:25:05;;;;;;;;;;;11.30;70.10;;;;;;5094069;28;20181;-56
2022/04/13 02:27:50;;;;;;;19.45;13.68;;;11.30;70.10;;;;;;5094688;28;19911;-52
2022/04/13 02:30:34;;;;;;;20.75;13.38;;;11.40;69.90;;;;;;5111849;28;20533;-54
2022/04/13 02:33:20;;;;;;;20.02;14.70;;;11.40;70.00;;;;;;5093561;28;20087;-56
2022/04/13 02:36:05;;;;;;;22.52;14.25;;;11.40;69.60;;;;;;5111151;28;20042;-56
2022/04/13 02:38:49;;;;;;;22.88;14.15;;;11.40;70.00;;;;;;5113215;28;20034;-54
2022/04/13 02:41:34;;;;;;;20.98;15.25;;;11.30;69.90;;;;;;5111655;27;20029;-54
2022/04/13 02:44:18;;;;;;;20.43;14.23;;;11.30;69.50;;;;;;5133397;27;20047;-56
2022/04/13 02:47:02;;;;;;;21.10;15.37;;;11.30;69.90;;;;;;5092399;28;20469;-51
2022/04/13 02:49:48;;;;;;;20.65;15.20;;;11.20;70.20;;;;;;5095104;28;20039;-49
2022/04/13 02:52:33;;;;;;;20.52;14.88;;;11.10;70.40;;;;;;5113010;28;20455;-55
2022/04/13 02:55:17;;;;;;;;;;;11.20;70.30;;;;;;5107204;28;20111;-55
2022/04/13 02:58:01;;;;;;;20.02;14.98;;;11.10;70.90;;;;;;5093256;28;19957;-52
2022/04/13 03:00:47;;;;;;;21.70;16.27;;;11.10;70.70;;;;;;5093235;28;20071;-55
2022/04/13 03:03:31;;;;;;;25.25;17.05;;;11.00;71.20;;;;;;5098723;28;20041;-52
2022/04/13 03:06:15;;;;;;;23.83;14.97;;;11.00;71.30;;;;;;5113844;28;20042;-55
2022/04/13 03:08:59;;;;;;;21.67;15.82;;;10.90;71.90;;;;;;5113265;28;20031;-55
2022/04/13 03:11:43;;;;;;;21.05;14.07;;;10.90;71.70;;;;;;5099254;28;20665;-54
2022/04/13 03:14:27;;;;;;;22.17;14.65;;;11.00;72.40;;;;;;5105902;28;20028;-55
2022/04/13 03:17:11;;;;;;;21.75;14.68;;;11.10;72.40;;;;;;5102967;28;20046;-56
2022/04/13 03:19:55;;;;;;;19.47;14.10;;;11.10;72.50;;;;;;5096786;28;20043;-52
2022/04/13 03:22:39;;;;;;;20.80;14.77;;;11.10;72.50;;;;;;5112804;28;20097;-52
2022/04/13 03:25:23;;;;;;;20.10;13.50;;;11.10;72.50;;;;;;5098652;28;20403;-52
2022/04/13 03:28:07;;;;;;;21.50;14.70;;;11.10;72.40;;;;;;5107090;28;20350;-56
2022/04/13 03:30:53;;;;;;;19.20;14.68;;;11.00;73.10;;;;;;5112848;28;20537;-53
2022/04/13 03:33:37;;;;;;;20.90;14.10;;;10.90;73.40;;;;;;5097833;28;20060;-52
2022/04/13 03:36:21;;;;;;;19.23;14.77;;;10.90;73.60;;;;;;5111864;28;20513;-58
2022/04/13 03:39:08;;;;;;;24.10;15.80;;;10.80;73.60;;;;;;5116986;28;20557;-53
2022/04/13 03:41:53;;;;;;;20.75;14.13;;;10.80;73.90;;;;;;5109659;27;20037;-53
2022/04/13 03:44:37;;;;;;;20.70;14.87;;;10.80;73.90;;;;;;5134924;27;20096;-52
2022/04/13 03:47:21;;;;;;;20.52;14.20;;;10.80;73.40;;;;;;5116770;28;20268;-56
2022/04/13 03:50:07;;;;;;;20.90;13.93;;;10.70;73.50;;;;;;5112671;28;20039;-56
2022/04/13 03:52:51;;;;;;;19.95;14.55;;;10.70;73.70;;;;;;5096929;28;20096;-55
2022/04/13 03:55:35;;;;;;;20.63;14.02;;;10.70;73.60;;;;;;5097313;28;20042;-53
2022/04/13 03:58:19;;;;;;;21.37;15.33;;;10.70;73.70;;;;;;5110123;28;20039;-53
2022/04/13 04:01:03;;;;;;;25.02;14.82;;;10.70;73.90;;;;;;5109274;28;20410;-50
2022/04/13 04:03:47;;;;;;;21.27;14.43;;;10.70;74.40;;;;;;5115118;28;20043;-54
2022/04/13 04:06:31;;;;;;;19.95;14.90;;;10.70;74.30;;;;;;5115996;28;20054;-51
2022/04/13 04:09:15;;;;;;;20.80;15.50;;;10.80;74.00;;;;;;5117200;28;20089;-54
2022/04/13 04:12:00;;;;;;;24.90;15.60;;;10.80;73.90;;;;;;5116002;28;20037;-55
2022/04/13 04:14:44;;;;;;;22.88;14.90;;;10.80;74.00;;;;;;5116060;28;20070;-52
2022/04/13 04:17:28;;;;;;;22.35;15.50;;;10.70;73.60;;;;;;5106972;28;20043;-54
2022/04/13 04:20:12;;;;;;;18.83;14.20;;;10.40;74.20;;;;;;5096746;28;20039;-52
2022/04/13 04:22:57;;;;;;;19.02;14.13;;;10.50;74.70;;;;;;5096311;28;20071;-55
2022/04/13 04:25:41;;;;;;;19.50;13.70;;;10.50;74.70;;;;;;5106189;28;20031;-54
2022/04/13 04:28:25;;;;;;;20.13;13.93;;;10.50;74.20;;;;;;5115597;28;20035;-50
2022/04/13 04:31:09;;;;;;;35.97;23.83;;;10.50;74.10;;;;;;5100553;28;20075;-54
2022/04/13 04:33:53;;;;;;;49.38;28.50;;;10.50;74.20;;;;;;5094834;28;20070;-54
2022/04/13 04:36:37;;;;;;;28.80;18.20;;;10.50;74.20;;;;;;5094928;28;20101;-57
2022/04/13 04:39:21;;;;;;;25.00;16.33;;;10.50;74.30;;;;;;5095145;28;20046;-53
2022/04/13 04:42:05;;;;;;;19.92;14.45;;;10.50;74.30;;;;;;5111906;27;20091;-59
2022/04/13 04:44:55;;;;;;;24.92;14.32;;;10.50;74.20;;;;;;5132524;27;20050;-55
2022/04/13 04:47:40;;;;;;;22.60;14.88;;;10.50;74.20;;;;;;5115814;28;20035;-56
2022/04/13 04:50:24;;;;;;;21.73;15.18;;;10.50;74.20;;;;;;5098511;28;20058;-54
2022/04/13 04:53:07;;;;;;;24.70;14.52;;;10.50;74.30;;;;;;5109975;28;20039;-53
2022/04/13 04:55:51;;;;;;;19.73;14.00;;;10.60;74.50;;;;;;5080030;28;20116;-55
2022/04/13 04:58:35;;;;;;;18.77;13.67;;;10.60;74.40;;;;;;5104037;28;20035;-56
2022/04/13 05:01:19;;;;;;;30.08;15.32;;;10.50;74.30;;;;;;5115151;28;20399;-55
2022/04/13 05:04:04;;;;;;;18.90;14.38;;;10.50;74.20;;;;;;5105372;28;20038;-57
2022/04/13 05:06:48;;;;;;;19.02;14.52;;;10.40;74.80;;;;;;5114157;28;20462;-53
2022/04/13 05:09:32;;;;;;;25.40;15.73;;;10.50;74.80;;;;;;5099800;28;20074;-57
2022/04/13 05:12:16;;;;;;;22.30;15.07;;;10.50;74.70;;;;;;5105161;28;20455;-55
2022/04/13 05:15:03;;;;;;;24.20;14.52;;;10.60;74.70;;;;;;5094883;28;20047;-56
2022/04/13 05:17:47;;;;;;;25.48;14.93;;;10.60;74.50;;;;;;5110250;28;20085;-52
2022/04/13 05:20:31;;;;;;;23.85;13.95;;;10.60;74.30;;;;;;5114432;28;20066;-53
2022/04/13 05:23:17;;;;;;;23.43;14.43;;;10.60;74.20;;;;;;5112899;28;20506;-53
2022/04/13 05:26:01;;;;;;;25.02;14.80;;;10.70;74.30;;;;;;5115039;28;20030;-54
2022/04/13 05:28:47;;;;;;;29.60;15.13;;;10.80;74.10;;;;;;5101230;28;20039;-55
2022/04/13 05:31:32;;;;;;;30.25;15.25;;;10.90;73.90;;;;;;5095991;28;20407;-56
2022/04/13 05:34:16;;;;;;;18.70;13.80;;;11.10;73.30;;;;;;5113524;28;20043;-55
2022/04/13 05:37:00;;;;;;;24.23;13.88;;;11.10;73.20;;;;;;5116564;28;20494;-56
2022/04/13 05:39:45;;;;;;;;;;;11.20;73.10;;;;;;5095651;28;20110;-54
2022/04/13 05:42:31;;;;;;;27.50;14.23;;;11.30;73.00;;;;;;5113095;27;19930;-51
2022/04/13 05:45:16;;;;;;;24.10;13.65;;;11.40;73.00;;;;;;5094311;28;20400;-53
2022/04/13 05:48:01;;;;;;;16.88;11.82;;;11.40;72.60;;;;;;5099998;28;20042;-56
2022/04/13 05:50:45;;;;;;;15.83;12.47;;;11.50;72.20;;;;;;5114049;28;20030;-53
2022/04/13 05:53:29;;;;;;;26.77;13.03;;;11.60;72.00;;;;;;5114540;28;20115;-53
2022/04/13 05:56:13;;;;;;;26.02;13.38;;;11.70;71.80;;;;;;5110895;28;20521;-54
2022/04/13 05:58:57;;;;;;;25.10;12.40;;;11.80;71.80;;;;;;5094668;28;20043;-56
2022/04/13 06:01:41;;;;;;;20.27;12.95;;;11.90;71.50;;;;;;5108497;28;20039;-54
2022/04/13 06:04:25;;;;;;;24.38;13.48;;;11.90;71.20;;;;;;5113099;28;20031;-54
2022/04/13 06:07:10;;;;;;;;;;;11.90;71.30;;;;;;5114186;28;20082;-55
2022/04/13 06:09:54;;;;;;;27.85;13.90;;;12.00;71.00;;;;;;5107488;28;19958;-56
2022/04/13 06:12:38;;;;;;;34.30;16.30;;;12.00;71.00;;;;;;5093234;28;20046;-55
2022/04/13 06:15:22;;;;;;;27.17;18.30;;;12.10;71.00;;;;;;5103364;27;20066;-54
2022/04/13 06:18:07;;;;;;;37.70;17.00;;;12.10;71.00;;;;;;5119900;27;20038;-53
2022/04/13 06:20:51;;;;;;;42.90;18.50;;;12.10;71.00;;;;;;5093264;28;20040;-55
2022/04/13 06:23:35;;;;;;;47.03;17.17;;;12.20;71.10;;;;;;5121053;27;20264;-56
2022/04/13 06:26:19;;;;;;;41.17;14.35;;;12.20;70.90;;;;;;5095032;28;20084;-55
2022/04/13 06:29:04;;;;;;;21.92;12.68;;;12.20;70.80;;;;;;5096991;28;20047;-55
2022/04/13 06:31:48;;;;;;;;;;;12.20;70.70;;;;;;5099641;28;20034;-54
2022/04/13 06:34:32;;;;;;;25.38;13.02;;;12.20;70.80;;;;;;5092059;28;19954;-55
2022/04/13 06:37:16;;;;;;;21.23;12.98;;;12.20;70.80;;;;;;5114165;28;20104;-55
2022/04/13 06:40:01;;;;;;;22.17;13.53;;;12.20;70.60;;;;;;5113682;28;20059;-57
2022/04/13 06:42:45;;;;;;;19.52;13.52;;;12.30;70.60;;;;;;5098760;28;20043;-55
2022/04/13 06:45:29;;;;;;;23.42;11.85;;;12.40;70.50;;;;;;5107394;27;20087;-57
2022/04/13 06:48:13;;;;;;;31.53;13.43;;;12.50;70.40;;;;;;5135067;27;20050;-56
2022/04/13 06:50:57;;;;;;;19.70;11.93;;;12.60;70.10;;;;;;5118295;27;20410;-56
2022/04/13 06:53:42;;;;;;;17.80;12.82;;;12.60;70.10;;;;;;5114800;28;20062;-55
2022/04/13 06:56:26;;;;;;;18.75;11.27;;;12.70;70.10;;;;;;5113751;28;20039;-55
2022/04/13 06:59:10;;;;;;;31.98;13.88;;;12.80;69.90;;;;;;5104131;28;20094;-56
2022/04/13 07:01:54;;;;;;;21.88;11.45;;;13.00;69.70;;;;;;5108409;28;20089;-56
2022/04/13 07:04:39;;;;;;;33.03;15.25;;;13.10;69.50;;;;;;5109456;28;20056;-55
2022/04/13 07:07:24;;;;;;;25.35;14.05;;;13.20;69.20;;;;;;5108877;28;20030;-56
2022/04/13 07:10:08;;;;;;;22.67;11.40;;;13.20;69.20;;;;;;5093048;28;20039;-55
2022/04/13 07:12:53;;;;;;;28.05;11.35;;;13.20;68.90;;;;;;5097920;28;20084;-54
2022/04/13 07:15:38;;;;;;;28.13;12.10;;;13.30;68.90;;;;;;5096863;28;20089;-56
2022/04/13 07:18:22;;;;;;;14.23;11.38;;;13.30;68.80;;;;;;5097206;28;20039;-56
2022/04/13 07:21:06;;;;;;;18.43;11.50;;;13.30;68.70;;;;;;5112698;28;20039;-53
2022/04/13 07:23:50;;;;;;;19.25;11.18;;;13.20;68.70;;;;;;5102552;28;20042;-55
2022/04/13 07:26:34;;;;;;;14.53;10.23;;;13.30;68.90;;;;;;5101197;28;20120;-55
2022/04/13 07:29:18;;;;;;;29.67;14.40;;;13.50;68.70;;;;;;5112793;28;20169;-53
2022/04/13 07:32:03;;;;;;;20.80;12.80;;;13.70;68.50;;;;;;5099240;28;20043;-53
2022/04/13 07:34:47;;;;;;;30.55;15.30;;;13.90;68.40;;;;;;5097354;28;20100;-54
2022/04/13 07:37:32;;;;;;;22.25;14.10;;;13.90;68.30;;;;;;5119183;27;20062;-54
2022/04/13 07:40:17;;;;;;;30.58;16.50;;;13.90;68.10;;;;;;5082125;28;20068;-55
2022/04/13 07:43:01;;;;;;;19.55;14.07;;;13.90;68.20;;;;;;5113938;28;20031;-57
2022/04/13 07:45:45;;;;;;;22.77;15.05;;;14.10;68.20;;;;;;5114977;28;20060;-55
2022/04/13 07:48:30;;;;;;;22.20;12.30;;;14.20;67.80;;;;;;5133981;28;20078;-55
2022/04/13 07:51:14;;;;;;;17.63;11.95;;;14.30;67.50;;;;;;5134492;27;20069;-53
2022/04/13 07:54:01;;;;;;;16.50;11.95;;;14.50;67.40;;;;;;5113188;28;20399;-56
2022/04/13 07:56:45;;;;;;;16.67;12.20;;;14.60;67.20;;;;;;5112121;28;20104;-54
2022/04/13 07:59:29;;;;;;;16.63;11.15;;;14.60;66.50;;;;;;5097625;28;20035;-55
2022/04/13 08:02:13;;;;;;;18.10;12.63;;;14.70;66.20;;;;;;5092706;28;20107;-55
2022/04/13 08:04:57;;;;;;;19.25;11.90;;;14.70;66.30;;;;;;5102665;28;20073;-55
2022/04/13 08:07:42;;;;;;;17.20;10.25;;;14.80;66.30;;;;;;5133724;28;20034;-58
2022/04/13 08:10:26;;;;;;;16.17;11.10;;;15.00;66.40;;;;;;5115005;28;20103;-52
2022/04/13 08:13:10;;;;;;;18.92;13.07;;;15.20;66.00;;;;;;5096457;28;20047;-57
2022/04/13 08:15:54;;;;;;;21.38;11.45;;;15.40;66.20;;;;;;5107612;28;20070;-56
2022/04/13 08:18:38;;;;;;;19.55;11.50;;;15.50;66.00;;;;;;5112135;28;20555;-53
2022/04/13 08:21:23;;;;;;;19.52;11.15;;;15.50;65.90;;;;;;5115832;28;20387;-54
2022/04/13 08:24:07;;;;;;;21.20;12.20;;;15.60;66.30;;;;;;5100241;28;20077;-56
2022/04/13 08:26:52;;;;;;;16.95;11.23;;;15.60;66.00;;;;;;5110774;28;20026;-56
2022/04/13 08:29:36;;;;;;;19.88;11.02;;;15.70;66.40;;;;;;5096153;28;20168;-55
2022/04/13 08:32:21;;;;;;;26.05;11.50;;;16.00;66.20;;;;;;5083117;28;20055;-59
2022/04/13 08:35:09;;;;;;;18.52;11.70;;;16.10;65.60;;;;;;5085696;28;20078;-55
2022/04/13 08:37:53;;;;;;;16.30;11.05;;;16.00;65.60;;;;;;5100513;28;20039;-55
2022/04/13 08:40:46;;;;;;;17.55;11.15;;;16.10;65.60;;;;;;5095075;28;20149;-54
2022/04/13 08:43:45;;;;;;;23.70;11.57;;;16.10;65.00;;;;;;5119781;27;20030;-54
2022/04/13 08:46:34;;;;;;;23.45;12.65;;;16.30;64.80;;;;;;5116378;28;20041;-56
2022/04/13 08:49:19;;;;;;;19.13;10.80;;;16.50;65.00;;;;;;5099954;28;20043;-56
2022/04/13 08:52:05;;;;;;;23.90;12.07;;;16.60;64.80;;;;;;5095698;28;20039;-57
2022/04/13 08:54:49;;;;;;;16.60;11.82;;;16.80;64.70;;;;;;5095174;28;20058;-56
2022/04/13 08:57:45;;;;;;;18.13;14.90;;;17.00;64.50;;;;;;5100567;28;20042;-55
2022/04/13 09:00:31;;;;;;;21.85;13.38;;;17.10;64.30;;;;;;5097075;28;20545;-56
2022/04/13 09:03:26;;;;;;;23.83;13.02;;;17.20;64.20;;;;;;5101779;28;20039;-52
2022/04/13 09:06:12;;;;;;;23.38;12.80;;;17.00;64.30;;;;;;5114500;28;20035;-55
2022/04/13 09:09:00;;;;;;;37.05;20.48;;;17.10;64.30;;;;;;5116054;28;20063;-60
2022/04/13 09:11:46;;;;;;;18.40;13.02;;;17.20;64.50;;;;;;5107766;28;20039;-56
2022/04/13 09:14:31;;;;;;;20.77;12.68;;;17.10;65.00;;;;;;5110774;27;20619;-55
2022/04/13 09:17:16;;;;;;;20.35;12.13;;;17.00;66.00;;;;;;5122603;27;20571;-55
2022/04/13 09:20:01;;;;;;;22.77;12.18;;;17.20;66.00;;;;;;5134948;27;20114;-56
2022/04/13 09:22:46;;;;;;;19.58;12.23;;;17.40;65.60;;;;;;5095577;28;20082;-60
2022/04/13 09:25:32;;;;;;;21.25;13.05;;;17.60;65.30;;;;;;5098544;28;20111;-56
2022/04/13 09:28:17;;;;;;;19.88;11.75;;;17.60;64.40;;;;;;5099608;28;20030;-58
2022/04/13 09:31:01;;;;;;;27.08;13.25;;;17.70;64.90;;;;;;5107691;28;20159;-58
2022/04/13 09:33:45;;;;;;;22.05;12.75;;;17.70;64.50;;;;;;5094361;28;20059;-60
2022/04/13 09:36:30;;;;;;;62.38;15.20;;;17.60;65.50;;;;;;5104723;28;20433;-55
2022/04/13 09:39:15;;;;;;;23.55;12.95;;;17.90;65.40;;;;;;5109476;27;20055;-63
2022/04/13 09:42:04;;;;;;;22.35;12.15;;;18.30;64.60;;;;;;5102624;27;20062;-59
2022/04/13 09:45:00;;;;;;;46.40;31.85;;;18.60;63.60;;;;;;5114586;28;20509;-58
2022/04/13 09:47:47;;;;;;;17.63;12.23;;;18.70;63.20;;;;;;5108119;28;20490;-55
2022/04/13 09:50:32;;;;;;;20.80;12.38;;;18.60;63.90;;;;;;5109946;28;20035;-57
2022/04/13 09:53:19;;;;;;;15.82;11.07;;;18.80;63.20;;;;;;5127448;27;20046;-58
2022/04/13 09:56:03;;;;;;;16.58;10.70;;;18.70;63.00;;;;;;5134927;27;20505;-58
2022/04/13 09:58:48;;;;;;;26.67;14.32;;;18.70;63.40;;;;;;5123131;27;20089;-55
2022/04/13 10:01:34;;;;;;;21.73;11.25;;;18.70;62.90;;;;;;5114546;28;20055;-55
2022/04/13 10:04:29;;;;;;;29.30;22.35;;;18.80;63.40;;;;;;5099094;28;20660;-59
2022/04/13 10:07:18;;;;;;;17.63;10.45;;;19.10;62.60;;;;;;5094689;28;20586;-57
2022/04/13 10:10:03;;;;;;;16.00;9.18;;;19.30;60.40;;;;;;5095082;28;20043;-59
2022/04/13 10:12:49;;;;;;;27.45;10.10;;;19.40;60.10;;;;;;5095007;28;20162;-57
2022/04/13 10:15:34;;;;;;;14.93;10.20;;;19.50;59.50;;;;;;5114286;28;20031;-58
2022/04/13 10:18:18;;;;;;;23.20;10.07;;;19.40;60.00;;;;;;5122474;27;20118;-58
2022/04/13 10:21:02;;;;;;;22.23;11.85;;;19.50;60.90;;;;;;5099452;28;20096;-57
2022/04/13 10:23:46;;;;;;;15.98;10.82;;;19.50;60.40;;;;;;5113205;28;20085;-57
2022/04/13 10:26:30;;;;;;;16.80;10.25;;;19.50;60.10;;;;;;5109177;28;20548;-58
2022/04/13 10:29:16;;;;;;;34.58;14.95;;;19.60;60.40;;;;;;5093917;28;20093;-58
2022/04/13 10:32:06;;;;;;;19.25;10.55;;;19.80;61.10;;;;;;5099007;28;20055;-56
2022/04/13 10:34:59;;;;;;;16.75;11.02;;;20.10;60.50;;;;;;5133080;27;20644;-56
2022/04/13 10:37:43;;;;;;;17.42;11.23;;;20.20;60.40;;;;;;5123869;27;20084;-57
2022/04/13 10:40:36;;;;;;;24.98;11.73;;;20.30;60.30;;;;;;5101587;28;20115;-57
2022/04/13 10:43:23;;;;;;;19.08;10.52;;;20.40;60.30;;;;;;5107727;27;20105;-58
2022/04/13 10:46:09;;;;;;;14.57;10.07;;;20.30;59.90;;;;;;5103801;28;20051;-57
2022/04/13 10:48:57;;;;;;;24.95;11.45;;;20.50;59.80;;;;;;5113998;28;20419;-59
2022/04/13 10:51:43;;;;;;;27.13;11.73;;;20.50;59.30;;;;;;5098658;28;20050;-59
2022/04/13 10:54:34;;;;;;;26.02;11.60;;;20.50;59.10;;;;;;5094568;28;20058;-58
2022/04/13 10:57:21;;;;;;;21.15;10.98;;;20.40;59.30;;;;;;5110826;28;20057;-58
2022/04/13 11:00:08;;;;;;;26.63;11.40;;;20.20;59.10;;;;;;5115616;27;20086;-59
2022/04/13 11:02:57;;;;;;;24.25;12.32;;;20.30;59.20;;;;;;5113217;28;20540;-58
2022/04/13 11:05:42;;;;;;;17.10;11.25;;;20.30;59.10;;;;;;5095104;28;20089;-57
2022/04/13 11:08:51;;;;;;;18.20;9.73;;;20.30;59.20;;;;;;5110752;28;20077;-56
2022/04/13 11:11:36;;;;;;;18.98;11.13;;;20.60;59.20;;;;;;5078524;28;20181;-56
2022/04/13 11:14:22;;;;;;;16.40;11.00;;;20.70;58.80;;;;;;5100434;28;20034;-58
2022/04/13 11:17:06;;;;;;;13.90;9.57;;;20.70;59.00;;;;;;5113464;28;20035;-56
2022/04/13 11:19:51;;;;;;;17.63;11.05;;;20.80;58.50;;;;;;5113833;28;20030;-56
2022/04/13 11:22:35;;;;;;;17.20;10.10;;;21.00;58.40;;;;;;5113696;28;20039;-56
2022/04/13 11:25:38;;;;;;;;;;;21.10;58.30;;;;;;5114509;28;20588;-56
2022/04/13 11:28:28;;;;;;;12.73;9.30;;;21.00;57.90;;;;;;5113495;28;19915;-55
2022/04/13 11:31:12;;;;;;;15.68;9.85;;;21.10;57.50;;;;;;5113810;28;20533;-57
2022/04/13 11:33:57;;;;;;;16.33;10.35;;;21.30;58.40;;;;;;5113572;28;20046;-52
2022/04/13 11:36:49;;;;;;;;;;;21.30;58.00;;;;;;5113812;28;20115;-56
2022/04/13 11:39:53;;;;;;;13.63;9.20;;;21.30;58.20;;;;;;5108978;28;19975;-53
2022/04/13 11:42:37;;;;;;;13.55;10.10;;;21.60;57.10;;;;;;5118647;28;20034;-53
2022/04/13 11:45:23;;;;;;;47.85;12.98;;;21.60;57.00;;;;;;5133134;28;20038;-53
2022/04/13 11:48:08;;;;;;;28.70;11.50;;;21.70;57.10;;;;;;5123934;28;20158;-52
2022/04/13 11:51:26;;;;;;;21.73;9.73;;;21.70;56.70;;;;;;5113904;28;20047;-56
2022/04/13 11:54:12;;;;;;;25.17;10.18;;;21.90;56.80;;;;;;5114046;28;20627;-52
2022/04/13 11:56:56;;;;;;;24.02;11.00;;;21.90;56.30;;;;;;5101097;28;20038;-53
2022/04/13 11:59:50;;;;;;;13.13;9.65;;;21.80;56.10;;;;;;5123653;27;20073;-57
2022/04/13 12:02:34;;;;;;;17.92;9.27;;;21.80;56.30;;;;;;5138107;27;20049;-56
2022/04/13 12:05:18;;;;;;;18.98;9.95;;;21.70;56.70;;;;;;5110427;28;20030;-52
2022/04/13 12:08:05;;;;;;;;;;;21.80;56.30;;;;;;5117059;28;20035;-54
2022/04/13 12:11:04;;;;;;;18.05;10.07;;;21.70;56.00;;;;;;5116675;28;19961;-53
2022/04/13 12:13:56;;;;;;;23.33;10.57;;;21.60;56.80;;;;;;5111355;28;20027;-56
2022/04/13 12:16:44;;;;;;;19.23;10.70;;;21.70;55.70;;;;;;5095508;28;20031;-56
2022/04/13 12:19:40;;;;;;;16.80;9.30;;;21.80;56.10;;;;;;5080918;28;20082;-55
2022/04/13 12:22:24;;;;;;;13.57;9.45;;;21.90;56.60;;;;;;5095820;28;20519;-53
2022/04/13 12:25:09;;;;;;;12.68;9.25;;;21.90;55.80;;;;;;5066417;28;20116;-56
2022/04/13 12:28:04;;;;;;;13.32;9.40;;;22.00;55.40;;;;;;5096163;28;20035;-58
2022/04/13 12:30:55;;;;;;;14.80;9.68;;;22.30;56.10;;;;;;5095783;28;20419;-57
2022/04/13 12:33:40;;;;;;;17.58;9.75;;;22.30;55.30;;;;;;5095658;28;20035;-55
2022/04/13 12:36:24;;;;;;;11.40;9.43;;;22.40;55.30;;;;;;5096532;28;20038;-55
2022/04/13 12:39:12;;;;;;;;;;;22.50;55.00;;;;;;5102413;28;20042;-55
2022/04/13 12:41:57;;;;;;;15.05;8.88;;;22.50;55.50;;;;;;5123266;27;19914;-57
2022/04/13 12:44:47;;;;;;;18.08;9.55;;;22.60;54.80;;;;;;5133872;27;20043;-56
2022/04/13 12:47:31;;;;;;;15.27;9.02;;;22.60;54.20;;;;;;5116912;28;20035;-55
2022/04/13 12:50:16;;;;;;;13.02;9.07;;;22.60;54.00;;;;;;5114117;28;20031;-53
2022/04/13 12:53:02;;;;;;;12.43;8.30;;;22.70;53.70;;;;;;5113409;28;20514;-52
2022/04/13 12:55:56;;;;;;;13.57;8.50;;;22.60;53.70;;;;;;5113567;28;20077;-55
2022/04/13 12:58:41;;;;;;;;;;;22.80;53.40;;;;;;5114345;28;20042;-57
2022/04/13 13:01:25;;;;;;;11.25;7.72;;;23.00;53.30;;;;;;5113918;28;19923;-56
2022/04/13 13:04:12;;;;;;;11.60;7.40;;;23.00;53.50;;;;;;5124343;27;20497;-59
2022/04/13 13:07:07;;;;;;;19.23;8.88;;;23.20;53.50;;;;;;5101774;28;20081;-56
2022/04/13 13:09:52;;;;;;;;;;;23.30;52.60;;;;;;5113697;28;20038;-55
2022/04/13 13:12:36;;;;;;;16.35;8.80;;;23.30;52.50;;;;;;5112483;28;19915;-55
2022/04/13 13:15:35;;;;;;;20.30;9.20;;;23.40;52.50;;;;;;5112134;28;20039;-56
2022/04/13 13:18:20;;;;;;;23.33;10.75;;;23.30;52.60;;;;;;5120975;27;20030;-56
2022/04/13 13:21:04;;;;;;;13.30;8.25;;;23.30;52.70;;;;;;5111009;27;20043;-57
2022/04/13 13:23:49;;;;;;;15.00;8.32;;;23.50;52.90;;;;;;5094917;28;20045;-58
2022/04/13 13:26:33;;;;;;;14.40;8.90;;;23.60;52.70;;;;;;5091444;28;20410;-57
2022/04/13 13:29:17;;;;;;;14.07;8.95;;;23.60;52.60;;;;;;5100420;28;20038;-52
2022/04/13 13:32:12;;;;;;;12.10;8.63;;;23.60;52.30;;;;;;5096546;28;20050;-55
2022/04/13 13:35:02;;;;;;;15.32;9.13;;;23.40;52.50;;;;;;5108856;28;20645;-56
2022/04/13 13:37:52;;;;;;;12.85;8.38;;;23.30;53.20;;;;;;5093187;28;20077;-58
2022/04/13 13:40:36;;;;;;;15.43;8.82;;;23.30;53.30;;;;;;5093472;28;20108;-56
2022/04/13 13:43:25;;;;;;;11.70;8.20;;;23.40;54.00;;;;;;5131752;27;20034;-59
2022/04/13 13:46:18;;;;;;;11.63;7.85;;;23.50;53.30;;;;;;5111163;28;20085;-53
2022/04/13 13:49:04;;;;;;;10.00;7.15;;;23.60;53.70;;;;;;5106268;28;20039;-55
2022/04/13 13:51:48;;;;;;;15.15;9.43;;;23.70;53.40;;;;;;5113226;28;20580;-54
2022/04/13 13:54:35;;;;;;;;;;;23.70;53.00;;;;;;5110343;28;20043;-57
2022/04/13 13:57:19;;;;;;;12.05;8.30;;;23.60;52.90;;;;;;5100670;28;19974;-56
2022/04/13 14:00:08;;;;;;;12.57;8.35;;;23.50;52.90;;;;;;5095821;28;20043;-53
2022/04/13 14:02:52;;;;;;;11.88;8.27;;;23.50;53.20;;;;;;5092418;28;20038;-51
2022/04/13 14:05:39;;;;;;;14.05;7.90;;;23.50;53.00;;;;;;5106354;28;20089;-58
2022/04/13 14:08:23;;;;;;;9.70;6.72;;;23.50;53.30;;;;;;5112559;28;20039;-57